Time;durP1;ratioP1;P1;durP2;ratioP2;P2;SDS_P1;SDS_P2;PMS_P1;PMS_P2;Temp;Humidity;BMP_temperature;BMP_pressure;BME280_temperature;BME280_humidity;BME280_pressure;Samples;Min_cycle;Max_cycle;Signal;HPM_P1;HPM_P2
2021/12/24 00:01:19;;;;;;;910.35;388.00;;;1.70;99.90;;;;;;5115836;28;20102;-50
2021/12/24 00:03:45;;;;;;;672.72;315.00;;;1.70;99.90;;;;;;5115510;28;20023;-50
2021/12/24 00:06:12;;;;;;;684.67;323.10;;;1.70;99.90;;;;;;5115515;28;20058;-50
2021/12/24 00:08:38;;;;;;;684.67;325.27;;;1.60;99.90;;;;;;5115545;28;20031;-50
2021/12/24 00:11:06;;;;;;;665.92;316.25;;;1.60;99.90;;;;;;5115458;28;20038;-50
2021/12/24 00:13:36;;;;;;;826.38;372.42;;;1.60;99.90;;;;;;5097760;28;20032;-50
2021/12/24 00:16:19;;;;;;;748.95;338.30;;;1.60;99.90;;;;;;5094577;28;20051;-50
2021/12/24 00:18:53;;;;;;;727.80;315.95;;;1.70;99.90;;;;;;5111975;28;20118;-50
2021/12/24 00:35:12;;;;;;;688.40;320.55;;;1.90;99.90;;;;;;5114993;28;20031;-50
2021/12/24 00:37:44;;;;;;;639.22;294.63;;;1.90;99.90;;;;;;5114961;28;20073;-50
2021/12/24 00:40:18;;;;;;;647.63;299.65;;;1.90;99.90;;;;;;5096646;28;20051;-50
2021/12/24 00:42:48;;;;;;;637.08;298.40;;;1.90;99.90;;;;;;5114845;28;20035;-50
2021/12/24 00:45:17;;;;;;;625.72;297.10;;;1.90;99.90;;;;;;5114796;28;20084;-50
2021/12/24 00:47:45;;;;;;;632.47;302.85;;;1.90;99.90;;;;;;5114811;28;20055;-50
2021/12/24 00:50:15;;;;;;;596.10;280.65;;;2.00;99.90;;;;;;5114970;28;20107;-50
2021/12/24 00:55:11;;;;;;;566.20;259.25;;;2.00;99.90;;;;;;5114823;28;20031;-50
2021/12/24 00:57:41;;;;;;;483.58;217.68;;;1.90;99.90;;;;;;5114892;28;20028;-50
2021/12/24 01:00:14;;;;;;;459.50;204.30;;;1.80;99.90;;;;;;5096534;28;20020;-50
2021/12/24 01:02:41;;;;;;;489.35;221.52;;;1.90;99.90;;;;;;5114769;28;20404;-50
2021/12/24 01:05:09;;;;;;;501.58;228.73;;;1.90;99.90;;;;;;5096501;28;20039;-50
2021/12/24 01:07:38;;;;;;;500.58;230.43;;;2.00;99.90;;;;;;5096423;28;20031;-50
2021/12/24 01:10:06;;;;;;;507.08;232.38;;;2.00;99.90;;;;;;5096500;28;20028;-50
2021/12/24 01:12:32;;;;;;;473.17;214.43;;;2.00;99.90;;;;;;5105473;28;20020;-50
2021/12/24 01:14:58;;;;;;;463.48;208.90;;;2.00;99.90;;;;;;5076168;28;20108;-50
2021/12/24 01:20:02;;;;;;;593.05;259.10;;;1.90;99.90;;;;;;5096288;28;20119;-50
2021/12/24 01:25:12;;;;;;;552.88;249.55;;;1.80;99.90;;;;;;5113308;28;20530;-50
2021/12/24 01:37:51;;;;;;;555.42;252.38;;;1.90;99.90;;;;;;5100329;28;20130;-50
2021/12/24 01:38:35;;;;;;;507.95;228.80;;;1.90;99.90;;;;;;5117113;28;20110;-50
2021/12/24 01:41:08;;;;;;;537.08;247.65;;;1.80;99.90;;;;;;5100063;28;20066;-50
2021/12/24 01:43:35;;;;;;;516.33;239.60;;;1.80;99.90;;;;;;5099797;28;20051;-50
2021/12/24 01:46:01;;;;;;;446.70;201.63;;;1.90;99.90;;;;;;5118044;28;20049;-50
2021/12/24 01:48:28;;;;;;;412.50;184.43;;;1.90;99.90;;;;;;5099908;28;20028;-50
2021/12/24 01:50:55;;;;;;;399.60;175.82;;;1.80;99.90;;;;;;5099898;28;20420;-50
2021/12/24 01:53:25;;;;;;;379.20;168.18;;;1.70;99.90;;;;;;5099464;28;20027;-50
2021/12/24 01:55:53;;;;;;;411.27;179.25;;;1.60;99.90;;;;;;5099808;28;20028;-50
2021/12/24 01:58:25;;;;;;;423.17;185.35;;;1.70;99.90;;;;;;5099565;28;20119;-50
2021/12/24 02:00:55;;;;;;;376.13;163.57;;;1.80;99.90;;;;;;5099596;28;20042;-50
2021/12/24 02:03:22;;;;;;;351.33;157.97;;;1.80;99.90;;;;;;5099512;28;20073;-50
2021/12/24 02:05:48;;;;;;;388.50;169.35;;;1.80;99.90;;;;;;5099452;28;20035;-50
2021/12/24 02:08:16;;;;;;;352.15;155.55;;;1.80;99.90;;;;;;5117844;28;20028;-50
2021/12/24 02:10:43;;;;;;;348.33;154.18;;;1.70;99.90;;;;;;5099361;28;20032;-50
2021/12/24 02:13:10;;;;;;;343.35;156.93;;;1.70;99.90;;;;;;5101905;28;20059;-50
2021/12/24 02:28:54;;;;;;;320.02;141.32;;;1.80;99.90;;;;;;5095604;28;20031;-50
2021/12/24 02:31:26;;;;;;;307.63;137.93;;;1.80;99.90;;;;;;5096856;28;20032;-50
2021/12/24 02:33:53;;;;;;;327.27;142.00;;;1.80;99.90;;;;;;5096707;28;20149;-50
2021/12/24 02:36:21;;;;;;;335.88;150.57;;;1.80;99.90;;;;;;5096837;28;20032;-50
2021/12/24 02:38:48;;;;;;;341.52;149.35;;;1.90;99.90;;;;;;5096367;28;20438;-50
2021/12/24 02:41:14;;;;;;;330.30;149.23;;;1.80;99.90;;;;;;5096706;28;20031;-50
2021/12/24 02:43:41;;;;;;;327.85;148.80;;;1.70;99.90;;;;;;5096615;28;20032;-50
2021/12/24 02:46:15;;;;;;;289.23;131.18;;;1.70;99.90;;;;;;5095397;28;20036;-50
2021/12/24 02:49:01;;;;;;;305.25;135.75;;;1.70;99.90;;;;;;5096584;28;20042;-50
2021/12/24 02:54:15;;;;;;;331.38;144.00;;;1.70;99.90;;;;;;5096540;28;20069;-50
2021/12/24 02:56:50;;;;;;;330.55;146.88;;;1.80;99.90;;;;;;5095122;28;20027;-50
2021/12/24 02:59:18;;;;;;;323.90;143.80;;;1.80;99.90;;;;;;5096386;28;20039;-50
2021/12/24 03:01:48;;;;;;;335.05;147.13;;;1.80;99.90;;;;;;5094972;28;20436;-50
2021/12/24 03:04:15;;;;;;;307.17;139.27;;;1.70;99.90;;;;;;5095100;28;20032;-50
2021/12/24 03:06:44;;;;;;;317.08;141.07;;;1.70;99.90;;;;;;5096319;28;20111;-50
2021/12/24 03:09:15;;;;;;;307.80;133.75;;;1.80;99.90;;;;;;5094998;28;20028;-50
2021/12/24 03:11:42;;;;;;;306.98;139.00;;;1.80;99.90;;;;;;5096190;28;20032;-50
2021/12/24 03:14:09;;;;;;;306.88;135.43;;;1.80;99.90;;;;;;5094861;28;20027;-50
2021/12/24 03:16:37;;;;;;;287.73;131.35;;;1.80;99.90;;;;;;5094598;28;20027;-50
2021/12/24 03:19:05;;;;;;;285.15;127.35;;;1.70;99.90;;;;;;5095849;28;20081;-50
2021/12/24 03:21:38;;;;;;;268.55;121.18;;;1.60;99.90;;;;;;5094643;28;20150;-50
2021/12/24 03:26:45;;;;;;;260.83;121.07;;;1.60;99.90;;;;;;5116422;28;20042;-50
2021/12/24 03:29:12;;;;;;;260.15;120.55;;;1.50;99.90;;;;;;5097821;28;20016;-50
2021/12/24 03:31:40;;;;;;;285.85;128.48;;;1.50;99.90;;;;;;5097734;28;20051;-50
2021/12/24 03:34:09;;;;;;;291.92;133.63;;;1.50;99.90;;;;;;5114759;28;20035;-50
2021/12/24 03:36:35;;;;;;;310.95;138.40;;;1.50;99.90;;;;;;5115837;28;20023;-50
2021/12/24 03:39:06;;;;;;;325.63;144.00;;;1.50;99.90;;;;;;5097721;28;20381;-50
2021/12/24 03:41:32;;;;;;;336.77;147.55;;;1.60;99.90;;;;;;5097670;28;20027;-50
2021/12/24 03:43:59;;;;;;;301.42;139.13;;;1.60;99.90;;;;;;5097446;28;20031;-50
2021/12/24 03:46:37;;;;;;;296.48;137.82;;;1.70;99.90;;;;;;5097589;28;20511;-50
2021/12/24 03:49:08;;;;;;;293.45;130.32;;;1.80;99.90;;;;;;5097151;28;20106;-50
2021/12/24 03:51:57;;;;;;;258.67;121.25;;;1.70;99.90;;;;;;5097039;28;20505;-50
2021/12/24 03:57:07;;;;;;;197.90;95.75;;;1.50;99.90;;;;;;5114236;28;20028;-50
2021/12/24 03:59:59;;;;;;;222.02;101.88;;;1.40;99.90;;;;;;5115176;28;20020;-50
2021/12/24 04:02:45;;;;;;;281.90;128.07;;;1.40;99.90;;;;;;5115578;28;20039;-50
2021/12/24 04:05:29;;;;;;;309.25;134.95;;;1.30;99.90;;;;;;5115750;28;20074;-50
2021/12/24 04:08:15;;;;;;;344.70;149.00;;;1.30;99.90;;;;;;5115410;28;20496;-50
2021/12/24 04:11:07;;;;;;;364.20;162.93;;;1.40;99.90;;;;;;5113102;28;20056;-50
2021/12/24 04:13:37;;;;;;;449.77;195.43;;;1.50;99.90;;;;;;5062889;28;20058;-50
2021/12/24 04:16:04;;;;;;;407.25;180.50;;;1.40;99.90;;;;;;5094842;28;20486;-50
2021/12/24 04:18:41;;;;;;;426.70;189.80;;;1.40;99.90;;;;;;5110505;28;20107;-50
2021/12/24 04:26:39;;;;;;;553.05;245.98;;;1.40;99.90;;;;;;5073313;28;20028;-50
2021/12/24 04:29:06;;;;;;;500.88;214.77;;;1.40;99.90;;;;;;5056533;28;20094;-50
2021/12/24 04:31:55;;;;;;;405.23;170.90;;;1.30;99.90;;;;;;5056508;28;20028;-50
2021/12/24 04:34:50;;;;;;;358.73;155.57;;;1.40;99.90;;;;;;5070168;28;20040;-50
2021/12/24 04:51:30;;;;;;;327.25;147.68;;;0.90;99.90;;;;;;5073087;28;20043;-50
2021/12/24 05:05:21;;;;;;;234.95;105.47;;;1.30;99.90;;;;;;5060509;28;20040;-50
2021/12/24 05:10:21;;;;;;;230.90;104.30;;;1.10;99.90;;;;;;5060016;28;20091;-50
2021/12/24 05:12:47;;;;;;;282.50;123.05;;;1.00;99.90;;;;;;5059804;28;20029;-50
2021/12/24 05:15:13;;;;;;;276.42;121.90;;;0.90;99.90;;;;;;5093631;28;20460;-50
2021/12/24 05:23:34;;;;;;;281.65;122.55;;;0.70;99.90;;;;;;5076450;28;20067;-50
2021/12/24 05:26:01;;;;;;;278.50;119.95;;;0.60;99.90;;;;;;5098157;28;20028;-50
2021/12/24 05:28:27;;;;;;;314.83;138.13;;;0.70;99.90;;;;;;5098097;28;20110;-50
2021/12/24 05:30:53;;;;;;;345.63;154.73;;;0.60;99.90;;;;;;5079648;28;20028;-50
2021/12/24 05:33:19;;;;;;;385.85;172.73;;;0.60;99.90;;;;;;5079525;28;20096;-50
2021/12/24 05:35:45;;;;;;;359.35;161.20;;;0.60;99.90;;;;;;5079773;28;20116;-50
2021/12/24 05:38:14;;;;;;;366.35;166.05;;;0.60;99.90;;;;;;5097827;28;20055;-50
2021/12/24 05:40:40;;;;;;;356.50;159.60;;;0.70;99.90;;;;;;5079482;28;20024;-50
2021/12/24 05:43:06;;;;;;;340.08;154.50;;;0.70;99.90;;;;;;5079454;28;20031;-50
2021/12/24 05:45:32;;;;;;;324.52;151.63;;;0.70;99.90;;;;;;5079324;28;20038;-50
2021/12/24 05:48:16;;;;;;;318.17;145.35;;;0.80;99.90;;;;;;5097639;28;20089;-50
2021/12/24 05:50:43;;;;;;;312.15;144.50;;;0.70;99.90;;;;;;5079503;28;20024;-50
2021/12/24 05:53:27;;;;;;;293.17;133.63;;;0.60;99.90;;;;;;5097369;28;20053;-50
2021/12/24 05:55:58;;;;;;;249.02;118.43;;;0.60;99.90;;;;;;5079196;28;20028;-50
2021/12/24 05:58:24;;;;;;;255.02;114.15;;;0.60;99.90;;;;;;5079249;28;20188;-50
2021/12/24 06:00:51;;;;;;;249.48;115.38;;;0.60;99.90;;;;;;5079166;28;20042;-50
2021/12/24 06:03:22;;;;;;;233.13;110.38;;;0.50;99.90;;;;;;5096138;28;20557;-50
2021/12/24 06:05:48;;;;;;;237.13;112.47;;;0.50;99.90;;;;;;5096989;28;20031;-50
2021/12/24 06:08:14;;;;;;;201.32;97.93;;;0.40;99.90;;;;;;5097250;28;20442;-50
2021/12/24 06:10:41;;;;;;;233.23;108.30;;;0.40;99.90;;;;;;5097108;28;20120;-50
2021/12/24 06:13:08;;;;;;;218.95;102.28;;;0.40;99.90;;;;;;5095547;28;20119;-50
2021/12/24 06:15:45;;;;;;;225.30;106.75;;;0.50;99.90;;;;;;5097147;28;20027;-50
2021/12/24 06:18:22;;;;;;;242.80;113.50;;;0.50;99.90;;;;;;5102718;28;20285;-50
2021/12/24 06:20:48;;;;;;;285.92;128.55;;;0.50;99.90;;;;;;5117412;28;20413;-50
2021/12/24 06:23:14;;;;;;;290.27;137.30;;;0.50;99.90;;;;;;5080409;28;20048;-50
2021/12/24 06:25:40;;;;;;;282.00;137.38;;;0.50;99.90;;;;;;5088569;28;20535;-50
2021/12/24 06:28:07;;;;;;;297.20;137.88;;;0.50;99.90;;;;;;5087434;28;20035;-50
2021/12/24 06:30:32;;;;;;;259.85;120.28;;;0.60;99.90;;;;;;5085816;28;20028;-50
2021/12/24 06:33:00;;;;;;;261.90;124.22;;;0.60;99.90;;;;;;5089590;28;20043;-50
2021/12/24 06:35:26;;;;;;;236.68;111.47;;;0.60;99.90;;;;;;5082126;28;20028;-51
2021/12/24 06:37:54;;;;;;;210.95;100.80;;;0.50;99.90;;;;;;5095571;28;20115;-50
2021/12/24 06:40:54;;;;;;;250.63;117.93;;;0.50;99.90;;;;;;5096655;28;20012;-50
2021/12/24 06:43:20;;;;;;;244.45;117.03;;;0.50;99.90;;;;;;5112907;28;20040;-51
2021/12/24 06:45:47;;;;;;;269.48;122.13;;;0.50;99.90;;;;;;5096245;28;20378;-51
2021/12/24 06:48:14;;;;;;;257.08;120.55;;;0.50;99.90;;;;;;5096690;28;20085;-50
2021/12/24 06:50:40;;;;;;;187.32;91.50;;;0.60;99.90;;;;;;5096708;28;20028;-50
2021/12/24 06:53:06;;;;;;;143.27;70.05;;;0.60;99.90;;;;;;5096526;28;20028;-50
2021/12/24 06:55:32;;;;;;;153.88;74.25;;;0.60;99.90;;;;;;5097383;28;20050;-50
2021/12/24 06:58:04;;;;;;;273.85;129.98;;;0.50;99.90;;;;;;5064883;28;20020;-50
2021/12/24 07:00:32;;;;;;;273.05;135.63;;;0.60;99.90;;;;;;5066264;28;20530;-50
2021/12/24 07:02:58;;;;;;;301.48;147.55;;;0.70;99.90;;;;;;5079949;28;20501;-50
2021/12/24 07:05:24;;;;;;;382.02;178.07;;;0.80;99.90;;;;;;5075752;28;20481;-50
2021/12/24 07:07:50;;;;;;;447.77;215.73;;;0.90;99.90;;;;;;5075661;28;20028;-51
2021/12/24 07:10:16;;;;;;;523.10;255.85;;;1.10;99.90;;;;;;5083679;28;20024;-50
2021/12/24 07:12:42;;;;;;;577.72;269.80;;;1.20;99.90;;;;;;5088760;28;20575;-50
2021/12/24 07:15:09;;;;;;;776.03;345.27;;;1.30;99.90;;;;;;5077706;28;20028;-50
2021/12/24 07:17:35;;;;;;;690.28;332.48;;;1.40;99.90;;;;;;5093664;28;20406;-50
2021/12/24 07:20:05;;;;;;;633.50;298.50;;;1.50;99.90;;;;;;5095962;28;20039;-50
2021/12/24 07:22:31;;;;;;;550.63;263.98;;;1.60;99.90;;;;;;5090939;28;20028;-51
2021/12/24 07:24:57;;;;;;;546.72;263.58;;;1.70;99.90;;;;;;5081138;28;20090;-50
2021/12/24 07:27:23;;;;;;;518.20;244.27;;;1.90;99.90;;;;;;5096182;28;20067;-50
2021/12/24 07:29:49;;;;;;;444.98;205.68;;;2.60;99.90;;;;;;5095578;28;20453;-51
2021/12/24 07:32:15;;;;;;;509.00;242.30;;;3.70;99.90;;;;;;5075858;28;20032;-51
2021/12/24 07:34:47;;;;;;;520.42;252.38;;;4.90;99.90;;;;;;5095559;28;20532;-51
2021/12/24 07:37:13;;;;;;;530.33;253.55;;;6.30;99.90;;;;;;5072230;28;20063;-64
2021/12/24 07:39:39;;;;;;;536.47;259.08;;;7.40;99.90;;;;;;5094333;28;20040;-64
2021/12/24 07:42:05;;;;;;;571.55;289.95;;;8.40;99.90;;;;;;5091930;28;20417;-65
2021/12/24 07:44:35;;;;;;;576.65;293.55;;;8.90;99.90;;;;;;5072295;28;20115;-65
2021/12/24 07:47:03;;;;;;;592.15;311.67;;;9.80;99.90;;;;;;5089839;28;20060;-65
2021/12/24 07:49:32;;;;;;;587.13;309.25;;;10.80;98.60;;;;;;5086811;28;20016;-65
2021/12/24 07:52:08;;;;;;;586.75;313.15;;;11.00;97.60;;;;;;5091811;28;20028;-66
2021/12/24 07:54:38;;;;;;;581.08;303.70;;;11.50;96.70;;;;;;5088188;28;20024;-65
2021/12/24 07:57:05;;;;;;;584.30;309.35;;;11.60;95.00;;;;;;5085076;28;20020;-66
2021/12/24 07:59:35;;;;;;;586.95;310.88;;;12.30;93.10;;;;;;5091914;28;20130;-66
2021/12/24 08:02:01;;;;;;;578.50;312.15;;;12.40;93.60;;;;;;5093695;28;20072;-66
2021/12/24 08:04:27;;;;;;;606.25;327.67;;;12.90;91.20;;;;;;5091950;28;20028;-66
2021/12/24 08:06:53;;;;;;;597.83;326.58;;;13.00;89.00;;;;;;5092905;28;20028;-63
2021/12/24 08:09:19;;;;;;;612.75;331.27;;;13.50;89.60;;;;;;5072004;28;20062;-64
2021/12/24 08:11:45;;;;;;;593.13;320.92;;;14.70;78.70;;;;;;5087975;28;20071;-65
2021/12/24 08:14:11;;;;;;;580.80;317.45;;;15.50;69.10;;;;;;5091827;28;20032;-66
2021/12/24 08:16:37;;;;;;;586.33;321.45;;;15.70;63.90;;;;;;5088359;28;20028;-65
2021/12/24 08:19:03;;;;;;;591.60;323.95;;;16.50;59.20;;;;;;5090572;28;20032;-66
2021/12/24 08:21:29;;;;;;;616.92;339.95;;;15.50;63.90;;;;;;5085402;28;20145;-65
2021/12/24 08:23:56;;;;;;;635.67;348.58;;;15.90;61.50;;;;;;5104790;28;20024;-65
2021/12/24 08:26:22;;;;;;;601.50;338.58;;;15.80;63.70;;;;;;5085471;28;20497;-65
2021/12/24 08:28:49;;;;;;;621.17;346.15;;;16.90;57.90;;;;;;5091609;28;20036;-65
2021/12/24 08:31:15;;;;;;;628.33;365.10;;;16.70;59.10;;;;;;5090182;28;20032;-66
2021/12/24 08:33:41;;;;;;;632.85;363.70;;;17.20;55.80;;;;;;5092442;28;20031;-66
2021/12/24 08:36:08;;;;;;;622.45;357.70;;;16.50;57.60;;;;;;5089163;28;20024;-66
2021/12/24 08:38:34;;;;;;;625.38;363.05;;;16.70;59.40;;;;;;5085357;28;20031;-66
2021/12/24 08:41:01;;;;;;;616.05;357.38;;;16.60;57.20;;;;;;5090215;28;20032;-66
2021/12/24 08:43:27;;;;;;;635.72;362.60;;;17.30;57.20;;;;;;5087194;28;20384;-65
2021/12/24 08:45:56;;;;;;;619.42;368.25;;;18.10;54.30;;;;;;5084787;28;20036;-65
2021/12/24 08:48:22;;;;;;;631.10;376.15;;;18.00;54.00;;;;;;5092443;28;20023;-65
2021/12/24 08:50:49;;;;;;;639.58;377.15;;;17.60;54.60;;;;;;5080807;28;20102;-65
2021/12/24 08:53:15;;;;;;;637.50;382.75;;;17.10;58.70;;;;;;5089031;28;20036;-65
2021/12/24 08:55:42;;;;;;;616.63;370.92;;;17.30;58.70;;;;;;5090033;28;20022;-65
2021/12/24 08:58:08;;;;;;;603.75;363.58;;;16.90;59.70;;;;;;5084797;28;20028;-65
2021/12/24 09:00:35;;;;;;;616.92;371.88;;;17.10;60.20;;;;;;5086932;28;20470;-65
2021/12/24 09:03:02;;;;;;;630.47;383.38;;;17.20;59.30;;;;;;5093675;28;20161;-63
2021/12/24 09:05:30;;;;;;;630.42;382.90;;;17.60;61.30;;;;;;5082517;28;20056;-63
2021/12/24 09:08:01;;;;;;;654.75;400.30;;;18.30;57.20;;;;;;5073960;28;20082;-63
2021/12/24 09:10:27;;;;;;;630.35;393.83;;;19.40;53.10;;;;;;5073867;28;20048;-63
2021/12/24 09:12:54;;;;;;;638.60;394.10;;;19.10;53.40;;;;;;5090232;28;20389;-63
2021/12/24 09:15:22;;;;;;;628.53;387.85;;;18.50;53.60;;;;;;5093688;28;20031;-63
2021/12/24 09:17:48;;;;;;;630.53;389.88;;;18.50;53.80;;;;;;5089185;28;20425;-63
2021/12/24 09:20:18;;;;;;;588.17;366.25;;;19.20;52.50;;;;;;5093778;28;20035;-63
2021/12/24 09:22:46;;;;;;;615.33;375.73;;;19.10;52.00;;;;;;5091248;28;20187;-63
2021/12/24 09:25:16;;;;;;;607.10;366.08;;;20.10;50.50;;;;;;5090930;28;20505;-63
2021/12/24 09:27:43;;;;;;;603.42;356.67;;;20.10;50.30;;;;;;5093463;28;20044;-62
2021/12/24 09:30:10;;;;;;;558.92;335.75;;;20.50;49.80;;;;;;5094074;28;20111;-63
2021/12/24 09:32:36;;;;;;;493.80;292.10;;;20.70;48.50;;;;;;5094198;28;20028;-64
2021/12/24 09:35:03;;;;;;;338.67;186.00;;;21.20;46.90;;;;;;5093406;28;20032;-63
2021/12/24 09:37:29;;;;;;;322.83;180.52;;;21.60;46.80;;;;;;5092739;28;20020;-63
2021/12/24 09:39:55;;;;;;;318.85;163.10;;;21.90;45.50;;;;;;5094588;28;20060;-63
2021/12/24 09:42:24;;;;;;;253.73;135.27;;;22.30;45.00;;;;;;5093965;28;20032;-63
2021/12/24 09:44:50;;;;;;;151.10;78.80;;;23.00;42.90;;;;;;5088122;28;20101;-63
2021/12/24 09:47:16;;;;;;;177.55;83.35;;;23.50;40.50;;;;;;5082487;28;20036;-63
2021/12/24 09:49:42;;;;;;;112.63;60.97;;;23.30;40.20;;;;;;5091859;28;20103;-64
2021/12/24 09:52:08;;;;;;;124.45;56.20;;;23.40;38.80;;;;;;5097068;28;20071;-65
2021/12/24 09:54:34;;;;;;;109.32;54.15;;;23.40;39.10;;;;;;5078593;28;20451;-65
2021/12/24 09:57:01;;;;;;;104.18;55.50;;;23.60;39.00;;;;;;5103272;28;20070;-65
2021/12/24 09:59:28;;;;;;;102.85;53.25;;;23.70;38.10;;;;;;5117080;28;20512;-65
2021/12/24 10:01:58;;;;;;;83.43;45.45;;;23.50;38.50;;;;;;5101146;28;20036;-64
2021/12/24 10:04:31;;;;;;;58.83;30.23;;;23.10;38.70;;;;;;5096149;28;20028;-65
2021/12/24 10:07:05;;;;;;;63.17;26.38;;;22.60;38.90;;;;;;5097179;28;20032;-64
2021/12/24 10:09:36;;;;;;;68.72;27.33;;;21.60;40.50;;;;;;5115589;28;20031;-64
2021/12/24 10:12:09;;;;;;;35.63;14.13;;;20.60;42.40;;;;;;5111654;28;20397;-64
2021/12/24 10:14:37;;;;;;;42.22;14.38;;;20.20;43.10;;;;;;5074568;28;20043;-64
2021/12/24 10:17:05;;;;;;;36.40;11.18;;;19.80;45.10;;;;;;5088475;28;20031;-64
2021/12/24 10:19:44;;;;;;;16.17;8.35;;;19.80;46.50;;;;;;5095206;28;20060;-64
2021/12/24 10:22:11;;;;;;;27.98;8.68;;;20.00;46.30;;;;;;5095372;28;20052;-64
2021/12/24 10:24:37;;;;;;;19.15;4.22;;;20.00;46.30;;;;;;5100231;28;20024;-64
2021/12/24 10:27:03;;;;;;;14.25;3.75;;;19.30;46.70;;;;;;5098122;28;20036;-64
2021/12/24 10:29:37;;;;;;;15.63;5.10;;;19.40;48.10;;;;;;5095411;28;20050;-64
2021/12/24 10:32:20;;;;;;;9.30;3.60;;;19.60;47.80;;;;;;5102775;28;20130;-63
2021/12/24 10:34:49;;;;;;;6.28;3.53;;;20.00;47.30;;;;;;5088269;28;20017;-63
2021/12/24 10:37:24;;;;;;;22.98;8.27;;;19.90;47.80;;;;;;5086533;28;20028;-64
2021/12/24 10:39:53;;;;;;;5.03;2.50;;;20.00;47.90;;;;;;5089782;28;20486;-64
2021/12/24 10:42:38;;;;;;;16.60;4.95;;;20.30;47.20;;;;;;5092782;28;20082;-64
2021/12/24 10:45:20;;;;;;;7.20;3.50;;;20.10;46.80;;;;;;5099251;28;20483;-64
2021/12/24 10:47:47;;;;;;;6.63;3.05;;;19.60;47.20;;;;;;5095423;28;20466;-63
2021/12/24 10:50:28;;;;;;;10.00;2.90;;;19.40;47.90;;;;;;5088695;28;20035;-63
2021/12/24 10:55:48;;;;;;;9.48;3.38;;;19.10;48.60;;;;;;5094591;28;20024;-64
2021/12/24 10:58:20;;;;;;;15.98;3.95;;;18.90;50.10;;;;;;5090725;28;20039;-64
2021/12/24 11:00:50;;;;;;;17.52;5.65;;;18.90;50.30;;;;;;5085261;28;20373;-62
2021/12/24 11:03:22;;;;;;;14.02;5.05;;;18.50;51.60;;;;;;5095996;28;20836;-67
2021/12/24 11:05:54;;;;;;;12.07;4.28;;;18.70;51.40;;;;;;5077685;28;20151;-62
2021/12/24 11:08:23;;;;;;;10.82;3.97;;;18.40;52.30;;;;;;5090704;28;20024;-62
2021/12/24 11:10:54;;;;;;;10.60;3.05;;;18.40;52.20;;;;;;5093129;28;20846;-63
2021/12/24 11:13:33;;;;;;;7.60;2.97;;;17.90;53.40;;;;;;5095590;28;20025;-62
2021/12/24 11:16:02;;;;;;;16.10;3.90;;;17.50;55.40;;;;;;5086431;28;20032;-61
2021/12/24 11:18:31;;;;;;;13.35;3.45;;;17.10;58.40;;;;;;5089517;28;20031;-61
2021/12/24 11:21:06;;;;;;;6.85;3.20;;;16.90;59.80;;;;;;5095052;28;20028;-62
2021/12/24 11:23:34;;;;;;;18.55;5.45;;;16.90;62.80;;;;;;5090886;28;20601;-62
2021/12/24 11:26:08;;;;;;;10.45;3.90;;;16.80;64.60;;;;;;5086963;28;20466;-60
2021/12/24 11:28:35;;;;;;;17.13;7.30;;;16.50;66.20;;;;;;5096389;28;20071;-62
2021/12/24 11:31:04;;;;;;;16.98;5.13;;;16.80;68.60;;;;;;5095769;28;20085;-62
2021/12/24 11:33:32;;;;;;;14.55;3.42;;;17.20;65.00;;;;;;5091716;28;20036;-62
2021/12/24 11:36:00;;;;;;;7.43;2.50;;;17.40;64.70;;;;;;5071165;28;20155;-62
2021/12/24 11:38:30;;;;;;;8.43;2.38;;;17.20;64.00;;;;;;5087169;28;20058;-61
2021/12/24 11:40:58;;;;;;;15.45;4.75;;;17.10;65.00;;;;;;5076241;28;20032;-62
2021/12/24 11:43:29;;;;;;;12.10;2.88;;;17.50;64.30;;;;;;5088122;28;20093;-62
2021/12/24 11:46:00;;;;;;;10.45;3.63;;;17.70;62.90;;;;;;5088018;28;20036;-62
2021/12/24 11:48:30;;;;;;;13.25;3.33;;;18.10;58.10;;;;;;5075867;28;20036;-62
2021/12/24 11:50:58;;;;;;;9.17;2.90;;;18.20;57.90;;;;;;5075763;28;20428;-63
2021/12/24 11:53:26;;;;;;;12.13;2.90;;;18.50;56.90;;;;;;5087510;28;20032;-63
2021/12/24 11:55:52;;;;;;;13.45;3.80;;;18.50;55.60;;;;;;5093041;28;20077;-62
2021/12/24 11:58:25;;;;;;;10.70;2.65;;;18.60;56.70;;;;;;5094592;28;20051;-63
2021/12/24 12:00:54;;;;;;;5.05;2.35;;;18.50;55.00;;;;;;5093315;28;20369;-63
2021/12/24 12:03:49;;;;;;;12.20;3.13;;;18.10;56.30;;;;;;5094012;28;20551;-63
2021/12/24 12:06:24;;;;;;;7.43;2.00;;;17.90;58.90;;;;;;5091269;28;20051;-61
2021/12/24 12:08:56;;;;;;;8.77;2.20;;;18.20;57.80;;;;;;5094624;28;20107;-61
2021/12/24 12:11:26;;;;;;;12.25;3.63;;;18.20;57.70;;;;;;5092945;28;20028;-63
2021/12/24 12:14:31;;;;;;;17.95;5.18;;;17.90;59.50;;;;;;5092133;28;20061;-64
2021/12/24 12:17:01;;;;;;;18.33;4.07;;;18.40;58.40;;;;;;5059498;28;20529;-63
2021/12/24 12:25:09;;;;;;;13.80;4.50;;;19.10;55.10;;;;;;5089262;28;20532;-51
2021/12/24 12:27:59;;;;;;;20.73;5.10;;;18.60;54.90;;;;;;5093736;28;20093;-51
2021/12/24 12:30:50;;;;;;;24.10;5.72;;;17.90;56.80;;;;;;5086792;28;20032;-51
2021/12/24 12:33:18;;;;;;;16.52;4.47;;;17.20;63.30;;;;;;5081182;28;20454;-51
2021/12/24 12:35:58;;;;;;;12.10;4.05;;;16.90;65.80;;;;;;5089480;28;20117;-51
2021/12/24 12:38:44;;;;;;;20.23;5.35;;;16.60;69.10;;;;;;5093840;28;20109;-51
2021/12/24 12:41:21;;;;;;;9.07;3.53;;;16.40;72.60;;;;;;5093231;28;20021;-51
2021/12/24 12:43:49;;;;;;;18.15;3.95;;;16.20;75.90;;;;;;5090776;28;20587;-51
2021/12/24 12:46:25;;;;;;;13.40;4.20;;;16.20;77.50;;;;;;5094044;28;20055;-51
2021/12/24 12:48:53;;;;;;;21.30;7.15;;;16.20;77.10;;;;;;5091004;28;20031;-51
2021/12/24 12:51:41;;;;;;;22.88;5.82;;;16.20;80.20;;;;;;5093563;28;20492;-51
2021/12/24 12:54:30;;;;;;;10.95;3.03;;;16.60;78.90;;;;;;5091493;28;20523;-51
2021/12/24 12:57:34;;;;;;;17.23;6.38;;;17.00;73.30;;;;;;5095185;28;20020;-51
2021/12/24 13:00:08;;;;;;;7.95;3.88;;;17.20;71.10;;;;;;5094529;28;20059;-51
2021/12/24 13:05:52;;;;;;;12.07;4.15;;;17.10;71.80;;;;;;5090918;28;20542;-51
2021/12/24 13:08:22;;;;;;;11.93;4.40;;;17.10;70.30;;;;;;5091082;28;20060;-51
2021/12/24 13:11:03;;;;;;;14.80;4.80;;;17.50;67.70;;;;;;5089093;28;20067;-51
2021/12/24 13:13:55;;;;;;;14.98;4.68;;;17.70;64.70;;;;;;5088285;28;20750;-51
2021/12/24 13:16:35;;;;;;;12.15;4.88;;;17.10;67.90;;;;;;5085731;28;20043;-51
2021/12/24 13:24:59;;;;;;;19.85;5.90;;;16.30;77.70;;;;;;5096676;28;20034;-51
2021/12/24 13:27:34;;;;;;;29.05;10.13;;;16.20;81.70;;;;;;5096514;28;20121;-51
2021/12/24 13:30:18;;;;;;;22.02;6.22;;;16.10;81.50;;;;;;5085535;28;20043;-51
2021/12/24 13:32:44;;;;;;;22.52;6.82;;;15.80;82.20;;;;;;5095630;28;20020;-51
2021/12/24 13:35:24;;;;;;;10.05;3.63;;;15.80;83.30;;;;;;5098535;28;20568;-51
2021/12/24 13:37:54;;;;;;;25.85;5.40;;;15.80;83.20;;;;;;5097832;28;20034;-51
2021/12/24 13:40:23;;;;;;;28.23;6.93;;;15.80;85.60;;;;;;5093698;28;20046;-51
2021/12/24 13:43:06;;;;;;;13.77;3.72;;;15.90;85.80;;;;;;5093149;28;20028;-51
2021/12/24 13:45:36;;;;;;;21.40;6.35;;;15.80;82.70;;;;;;5085841;28;20444;-51
2021/12/24 13:48:14;;;;;;;27.85;7.25;;;15.70;88.30;;;;;;5101510;28;20719;-51
2021/12/24 13:56:40;;;;;;;8.52;4.15;;;15.40;90.30;;;;;;5072615;28;20492;-51
2021/12/24 13:59:07;;;;;;;11.90;4.50;;;15.40;90.00;;;;;;5093845;28;20027;-51
2021/12/24 14:01:34;;;;;;;12.75;4.63;;;15.50;88.70;;;;;;5087848;28;20040;-51
2021/12/24 14:04:02;;;;;;;13.13;4.95;;;15.70;88.90;;;;;;5098359;28;20473;-51
2021/12/24 14:06:37;;;;;;;16.58;4.68;;;15.70;86.10;;;;;;5094851;28;20024;-51
2021/12/24 14:09:26;;;;;;;25.88;5.65;;;16.30;84.80;;;;;;5096203;28;20477;-51
2021/12/24 14:11:53;;;;;;;12.38;3.15;;;16.30;79.00;;;;;;5101781;28;20100;-51
2021/12/24 14:14:28;;;;;;;12.48;3.55;;;16.10;84.70;;;;;;5095923;28;20137;-51
2021/12/24 14:22:24;;;;;;;17.33;5.57;;;15.50;90.20;;;;;;5093868;28;20107;-51
2021/12/24 14:25:08;;;;;;;16.92;4.97;;;15.40;88.50;;;;;;5092423;28;20381;-51
2021/12/24 14:27:37;;;;;;;23.33;6.10;;;15.40;90.30;;;;;;5090090;28;20077;-51
2021/12/24 14:30:10;;;;;;;20.50;6.07;;;15.40;90.30;;;;;;5097750;28;20097;-51
2021/12/24 14:32:42;;;;;;;25.08;6.97;;;15.30;90.10;;;;;;5097392;28;20043;-51
2021/12/24 14:35:27;;;;;;;22.30;6.10;;;15.40;90.40;;;;;;5096219;28;20050;-51
2021/12/24 14:38:10;;;;;;;16.13;4.80;;;15.30;89.30;;;;;;5096425;28;20690;-51
2021/12/24 14:40:37;;;;;;;18.58;4.30;;;15.20;88.40;;;;;;5110413;28;20072;-51